sensor_id;sensor_type;location;lat;lon;timestamp;pressure;altitude;pressure_sealevel;temperature;humidity
73105;BME280;61296;50.526;30.792;2023-09-18T00:13:31;100293.66;;;15.61;64.03
73105;BME280;61296;50.526;30.792;2023-09-18T00:28:50;100338.53;;;15.91;64.23
73105;BME280;61296;50.526;30.792;2023-09-18T00:44:09;100247.97;;;15.22;64.74
73105;BME280;61296;50.526;30.792;2023-09-18T00:59:28;100285.63;;;15.34;65.68
73105;BME280;61296;50.526;30.792;2023-09-18T01:30:19;100288.19;;;14.98;67.92
73105;BME280;61296;50.526;30.792;2023-09-18T01:45:38;100320.38;;;15.21;67.65
73105;BME280;61296;50.526;30.792;2023-09-18T02:01:01;100318.34;;;15.11;68.27
73105;BME280;61296;50.526;30.792;2023-09-18T02:16:20;100316.34;;;15.04;68.15
73105;BME280;61296;50.526;30.792;2023-09-18T02:31:43;100242.75;;;14.44;69.50
73105;BME280;61296;50.526;30.792;2023-09-18T02:47:02;100309.47;;;14.80;70.19
73105;BME280;61296;50.526;30.792;2023-09-18T03:02:22;100231.50;;;14.27;70.40
73105;BME280;61296;50.526;30.792;2023-09-18T03:17:41;100294.28;;;14.60;70.74
73105;BME280;61296;50.526;30.792;2023-09-18T03:33:01;100244.06;;;14.17;70.52
73105;BME280;61296;50.526;30.792;2023-09-18T03:48:20;100258.47;;;14.37;70.62
73105;BME280;61296;50.526;30.792;2023-09-18T04:03:41;100243.81;;;14.33;71.74
73105;BME280;61296;50.526;30.792;2023-09-18T04:19:01;100303.13;;;14.83;69.54
73105;BME280;61296;50.526;30.792;2023-09-18T04:34:21;100287.38;;;14.91;68.24
73105;BME280;61296;50.526;30.792;2023-09-18T04:49:40;100234.31;;;14.82;69.30
73105;BME280;61296;50.526;30.792;2023-09-18T05:05:00;100289.94;;;15.28;68.42
73105;BME280;61296;50.526;30.792;2023-09-18T05:20:20;100308.84;;;15.99;66.52
73105;BME280;61296;50.526;30.792;2023-09-18T05:35:43;100221.63;;;16.03;62.71
73105;BME280;61296;50.526;30.792;2023-09-18T05:51:03;100264.84;;;16.76;61.23
73105;BME280;61296;50.526;30.792;2023-09-18T06:06:22;100283.00;;;17.19;59.98
73105;BME280;61296;50.526;30.792;2023-09-18T06:21:41;100312.63;;;18.38;58.06
73105;BME280;61296;50.526;30.792;2023-09-18T06:37:00;100238.81;;;18.61;55.25
73105;BME280;61296;50.526;30.792;2023-09-18T06:52:20;100259.25;;;19.60;53.60
73105;BME280;61296;50.526;30.792;2023-09-18T07:07:39;100314.81;;;20.82;51.94
73105;BME280;61296;50.526;30.792;2023-09-18T07:22:58;100248.19;;;21.20;48.81
73105;BME280;61296;50.526;30.792;2023-09-18T07:38:17;100305.66;;;22.37;45.54
73105;BME280;61296;50.526;30.792;2023-09-18T07:53:39;100313.78;;;22.80;43.26
73105;BME280;61296;50.526;30.792;2023-09-18T08:09:00;100311.09;;;23.22;42.67
73105;BME280;61296;50.526;30.792;2023-09-18T08:24:20;100234.81;;;23.40;39.98
73105;BME280;61296;50.526;30.792;2023-09-18T08:39:40;100267.88;;;23.61;39.66
73105;BME280;61296;50.526;30.792;2023-09-18T08:55:01;100281.63;;;23.84;39.26
73105;BME280;61296;50.526;30.792;2023-09-18T09:10:21;100232.66;;;23.44;37.90
73105;BME280;61296;50.526;30.792;2023-09-18T09:25:40;100270.16;;;23.92;37.34
73105;BME280;61296;50.526;30.792;2023-09-18T09:41:01;100253.31;;;24.04;37.25
73105;BME280;61296;50.526;30.792;2023-09-18T09:56:20;100234.31;;;23.96;37.33
73105;BME280;61296;50.526;30.792;2023-09-18T10:11:43;100249.81;;;24.13;35.82
73105;BME280;61296;50.526;30.792;2023-09-18T10:27:04;100192.19;;;24.08;35.54
73105;BME280;61296;50.526;30.792;2023-09-18T10:42:26;100209.25;;;24.14;36.26
73105;BME280;61296;50.526;30.792;2023-09-18T10:57:53;100194.84;;;24.12;37.29
73105;BME280;61296;50.526;30.792;2023-09-18T11:13:28;100139.94;;;23.98;37.52
73105;BME280;61296;50.526;30.792;2023-09-18T11:28:47;100137.66;;;24.06;36.63
73105;BME280;61296;50.526;30.792;2023-09-18T11:59:37;100150.34;;;24.58;36.31
73105;BME280;61296;50.526;30.792;2023-09-18T12:14:57;100111.88;;;24.33;35.71
73105;BME280;61296;50.526;30.792;2023-09-18T12:30:17;100110.06;;;24.61;35.22
73105;BME280;61296;50.526;30.792;2023-09-18T12:45:41;100103.66;;;24.60;35.40
73105;BME280;61296;50.526;30.792;2023-09-18T13:01:06;100079.84;;;24.52;36.04
73105;BME280;61296;50.526;30.792;2023-09-18T13:16:26;100078.22;;;24.64;35.28
73105;BME280;61296;50.526;30.792;2023-09-18T13:31:46;100037.16;;;24.44;35.37
73105;BME280;61296;50.526;30.792;2023-09-18T13:47:05;100084.94;;;24.66;34.82
73105;BME280;61296;50.526;30.792;2023-09-18T14:02:25;100033.31;;;24.51;35.39
73105;BME280;61296;50.526;30.792;2023-09-18T14:17:46;100026.50;;;24.39;35.67
73105;BME280;61296;50.526;30.792;2023-09-18T14:33:06;100031.66;;;24.41;35.81
73105;BME280;61296;50.526;30.792;2023-09-18T14:48:27;100019.00;;;24.24;36.23
73105;BME280;61296;50.526;30.792;2023-09-18T15:03:48;100060.56;;;24.41;36.66
73105;BME280;61296;50.526;30.792;2023-09-18T15:19:10;100030.72;;;24.22;37.68
73105;BME280;61296;50.526;30.792;2023-09-18T15:34:29;100007.50;;;23.87;38.11
73105;BME280;61296;50.526;30.792;2023-09-18T15:49:48;100009.91;;;23.63;38.33
73105;BME280;61296;50.526;30.792;2023-09-18T16:05:07;99998.84;;;23.21;39.23
73105;BME280;61296;50.526;30.792;2023-09-18T16:20:27;100012.19;;;22.92;40.45
73105;BME280;61296;50.526;30.792;2023-09-18T16:35:45;99996.19;;;22.51;41.54
73105;BME280;61296;50.526;30.792;2023-09-18T16:51:05;99931.25;;;21.98;41.70
73105;BME280;61296;50.526;30.792;2023-09-18T17:06:27;100024.13;;;22.41;41.71
73105;BME280;61296;50.526;30.792;2023-09-18T17:21:47;100011.25;;;21.99;42.89
73105;BME280;61296;50.526;30.792;2023-09-18T17:37:06;99990.34;;;21.58;43.13
73105;BME280;61296;50.526;30.792;2023-09-18T17:52:25;99996.34;;;21.24;45.25
73105;BME280;61296;50.526;30.792;2023-09-18T18:07:44;100033.31;;;20.99;46.17
73105;BME280;61296;50.526;30.792;2023-09-18T18:23:04;100006.75;;;20.55;46.68
73105;BME280;61296;50.526;30.792;2023-09-18T18:38:24;99967.09;;;20.00;47.50
73105;BME280;61296;50.526;30.792;2023-09-18T18:53:43;100013.44;;;19.98;48.32
73105;BME280;61296;50.526;30.792;2023-09-18T19:09:03;99974.88;;;19.46;49.25
73105;BME280;61296;50.526;30.792;2023-09-18T19:24:24;100003.97;;;19.45;50.16
73105;BME280;61296;50.526;30.792;2023-09-18T19:39:43;99994.84;;;19.17;51.32
73105;BME280;61296;50.526;30.792;2023-09-18T19:55:02;99958.25;;;18.61;52.04
73105;BME280;61296;50.526;30.792;2023-09-18T20:10:22;99974.13;;;18.34;53.47
73105;BME280;61296;50.526;30.792;2023-09-18T20:25:42;99945.69;;;17.85;54.96
73105;BME280;61296;50.526;30.792;2023-09-18T20:41:01;99962.13;;;17.69;55.79
73105;BME280;61296;50.526;30.792;2023-09-18T20:56:21;99946.19;;;17.35;56.57
73105;BME280;61296;50.526;30.792;2023-09-18T21:11:41;99962.25;;;17.13;58.13
73105;BME280;61296;50.526;30.792;2023-09-18T21:27:00;100017.78;;;17.20;59.44
73105;BME280;61296;50.526;30.792;2023-09-18T21:42:19;99953.06;;;16.68;59.89
73105;BME280;61296;50.526;30.792;2023-09-18T21:57:38;99972.84;;;16.66;61.23
73105;BME280;61296;50.526;30.792;2023-09-18T22:12:58;99984.41;;;16.58;62.20
73105;BME280;61296;50.526;30.792;2023-09-18T22:28:17;99916.16;;;15.87;63.51
73105;BME280;61296;50.526;30.792;2023-09-18T22:59:34;99924.09;;;15.85;63.61
73105;BME280;61296;50.526;30.792;2023-09-18T23:14:53;99903.94;;;15.67;64.40
73105;BME280;61296;50.526;30.792;2023-09-18T23:30:18;99972.78;;;15.97;65.32
73105;BME280;61296;50.526;30.792;2023-09-18T23:45:41;99907.13;;;15.47;65.24
